sensor_id;sensor_type;location;lat;lon;timestamp;P1;durP1;ratioP1;P2;durP2;ratioP2
25810;SDS011;13645;52.460;13.910;2022-11-03T00:01:54;2.95;;;1.83;;
25810;SDS011;13645;52.460;13.910;2022-11-03T00:04:21;3.05;;;1.85;;
25810;SDS011;13645;52.460;13.910;2022-11-03T00:06:49;3.63;;;2.08;;
25810;SDS011;13645;52.460;13.910;2022-11-03T00:09:17;5.72;;;2.55;;
25810;SDS011;13645;52.460;13.910;2022-11-03T00:11:45;5.88;;;2.35;;
25810;SDS011;13645;52.460;13.910;2022-11-03T00:14:13;6.47;;;2.20;;
25810;SDS011;13645;52.460;13.910;2022-11-03T00:16:40;3.65;;;2.10;;
25810;SDS011;13645;52.460;13.910;2022-11-03T00:19:07;3.80;;;2.17;;
25810;SDS011;13645;52.460;13.910;2022-11-03T00:21:35;3.50;;;2.15;;
25810;SDS011;13645;52.460;13.910;2022-11-03T00:24:03;2.83;;;1.98;;
25810;SDS011;13645;52.460;13.910;2022-11-03T00:26:30;4.65;;;2.33;;
25810;SDS011;13645;52.460;13.910;2022-11-03T00:28:59;1.98;;;1.60;;
25810;SDS011;13645;52.460;13.910;2022-11-03T00:31:32;2.85;;;2.10;;
25810;SDS011;13645;52.460;13.910;2022-11-03T00:34:00;2.03;;;1.83;;
25810;SDS011;13645;52.460;13.910;2022-11-03T00:36:29;4.03;;;1.80;;
25810;SDS011;13645;52.460;13.910;2022-11-03T00:38:57;3.47;;;2.10;;
25810;SDS011;13645;52.460;13.910;2022-11-03T00:41:25;2.25;;;1.88;;
25810;SDS011;13645;52.460;13.910;2022-11-03T00:43:52;8.07;;;2.22;;
25810;SDS011;13645;52.460;13.910;2022-11-03T00:46:19;3.60;;;2.08;;
25810;SDS011;13645;52.460;13.910;2022-11-03T00:48:48;3.85;;;1.90;;
25810;SDS011;13645;52.460;13.910;2022-11-03T00:51:17;4.68;;;2.38;;
25810;SDS011;13645;52.460;13.910;2022-11-03T00:53:49;5.97;;;2.25;;
25810;SDS011;13645;52.460;13.910;2022-11-03T00:56:27;7.78;;;2.38;;
25810;SDS011;13645;52.460;13.910;2022-11-03T00:58:56;4.40;;;3.00;;
25810;SDS011;13645;52.460;13.910;2022-11-03T01:01:24;5.03;;;2.53;;
25810;SDS011;13645;52.460;13.910;2022-11-03T01:03:54;4.40;;;2.70;;
25810;SDS011;13645;52.460;13.910;2022-11-03T01:06:42;5.03;;;2.70;;
25810;SDS011;13645;52.460;13.910;2022-11-03T01:14:49;3.45;;;2.20;;
25810;SDS011;13645;52.460;13.910;2022-11-03T01:17:18;2.47;;;1.73;;
25810;SDS011;13645;52.460;13.910;2022-11-03T01:19:49;2.65;;;1.30;;
25810;SDS011;13645;52.460;13.910;2022-11-03T01:22:16;23.17;;;1.80;;
25810;SDS011;13645;52.460;13.910;2022-11-03T01:24:44;18.65;;;1.85;;
25810;SDS011;13645;52.460;13.910;2022-11-03T01:27:12;4.57;;;1.77;;
25810;SDS011;13645;52.460;13.910;2022-11-03T01:29:40;40.47;;;2.97;;
25810;SDS011;13645;52.460;13.910;2022-11-03T01:32:07;84.53;;;3.60;;
25810;SDS011;13645;52.460;13.910;2022-11-03T01:34:34;51.17;;;2.90;;
25810;SDS011;13645;52.460;13.910;2022-11-03T01:37:02;102.22;;;3.65;;
25810;SDS011;13645;52.460;13.910;2022-11-03T01:39:29;39.08;;;3.10;;
25810;SDS011;13645;52.460;13.910;2022-11-03T01:41:55;126.32;;;3.92;;
25810;SDS011;13645;52.460;13.910;2022-11-03T01:44:26;23.10;;;2.78;;
25810;SDS011;13645;52.460;13.910;2022-11-03T01:47:14;10.70;;;2.72;;
25810;SDS011;13645;52.460;13.910;2022-11-03T01:49:46;42.75;;;2.80;;
25810;SDS011;13645;52.460;13.910;2022-11-03T01:52:21;4.10;;;1.83;;
25810;SDS011;13645;52.460;13.910;2022-11-03T01:54:56;7.93;;;1.88;;
25810;SDS011;13645;52.460;13.910;2022-11-03T01:57:27;5.60;;;2.22;;
25810;SDS011;13645;52.460;13.910;2022-11-03T01:59:59;2.70;;;1.90;;
25810;SDS011;13645;52.460;13.910;2022-11-03T02:02:27;2.03;;;1.60;;
25810;SDS011;13645;52.460;13.910;2022-11-03T02:04:54;2.45;;;1.80;;
25810;SDS011;13645;52.460;13.910;2022-11-03T02:07:25;4.13;;;1.63;;
25810;SDS011;13645;52.460;13.910;2022-11-03T02:10:04;5.47;;;1.90;;
25810;SDS011;13645;52.460;13.910;2022-11-03T02:12:31;2.45;;;1.92;;
25810;SDS011;13645;52.460;13.910;2022-11-03T02:15:04;3.67;;;2.08;;
25810;SDS011;13645;52.460;13.910;2022-11-03T02:17:35;2.30;;;2.00;;
25810;SDS011;13645;52.460;13.910;2022-11-03T02:20:17;2.88;;;2.00;;
25810;SDS011;13645;52.460;13.910;2022-11-03T02:25:44;3.05;;;1.98;;
25810;SDS011;13645;52.460;13.910;2022-11-03T02:28:34;3.05;;;2.03;;
25810;SDS011;13645;52.460;13.910;2022-11-03T02:36:27;2.35;;;1.45;;
25810;SDS011;13645;52.460;13.910;2022-11-03T02:41:50;3.05;;;1.90;;
25810;SDS011;13645;52.460;13.910;2022-11-03T02:44:19;2.38;;;1.75;;
25810;SDS011;13645;52.460;13.910;2022-11-03T02:46:49;3.63;;;1.55;;
25810;SDS011;13645;52.460;13.910;2022-11-03T02:49:22;1.95;;;1.50;;
25810;SDS011;13645;52.460;13.910;2022-11-03T02:52:00;2.67;;;1.50;;
25810;SDS011;13645;52.460;13.910;2022-11-03T02:54:28;2.20;;;1.80;;
25810;SDS011;13645;52.460;13.910;2022-11-03T02:57:15;2.83;;;1.80;;
25810;SDS011;13645;52.460;13.910;2022-11-03T02:59:49;2.58;;;1.95;;
25810;SDS011;13645;52.460;13.910;2022-11-03T03:02:25;7.10;;;2.30;;
25810;SDS011;13645;52.460;13.910;2022-11-03T03:05:01;3.60;;;2.15;;
25810;SDS011;13645;52.460;13.910;2022-11-03T03:07:35;6.90;;;2.38;;
25810;SDS011;13645;52.460;13.910;2022-11-03T03:10:07;6.28;;;2.20;;
25810;SDS011;13645;52.460;13.910;2022-11-03T03:12:47;3.58;;;2.58;;
25810;SDS011;13645;52.460;13.910;2022-11-03T03:15:17;12.95;;;3.00;;
25810;SDS011;13645;52.460;13.910;2022-11-03T03:20:22;35.13;;;3.03;;
25810;SDS011;13645;52.460;13.910;2022-11-03T03:25:57;154.23;;;3.92;;
25810;SDS011;13645;52.460;13.910;2022-11-03T03:31:11;14.93;;;1.92;;
25810;SDS011;13645;52.460;13.910;2022-11-03T03:33:39;38.90;;;2.78;;
25810;SDS011;13645;52.460;13.910;2022-11-03T03:36:13;4.97;;;2.27;;
25810;SDS011;13645;52.460;13.910;2022-11-03T03:38:43;5.35;;;2.83;;
25810;SDS011;13645;52.460;13.910;2022-11-03T03:41:14;3.80;;;2.55;;
25810;SDS011;13645;52.460;13.910;2022-11-03T03:43:51;3.10;;;2.40;;
25810;SDS011;13645;52.460;13.910;2022-11-03T03:46:20;4.60;;;2.10;;
25810;SDS011;13645;52.460;13.910;2022-11-03T03:48:49;4.50;;;2.85;;
25810;SDS011;13645;52.460;13.910;2022-11-03T03:51:17;2.80;;;2.15;;
25810;SDS011;13645;52.460;13.910;2022-11-03T03:53:50;3.70;;;2.70;;
25810;SDS011;13645;52.460;13.910;2022-11-03T03:56:35;10.00;;;2.67;;
25810;SDS011;13645;52.460;13.910;2022-11-03T03:59:05;4.65;;;2.40;;
25810;SDS011;13645;52.460;13.910;2022-11-03T04:01:32;6.55;;;2.47;;
25810;SDS011;13645;52.460;13.910;2022-11-03T04:03:59;3.35;;;2.33;;
25810;SDS011;13645;52.460;13.910;2022-11-03T04:06:26;5.78;;;2.53;;
25810;SDS011;13645;52.460;13.910;2022-11-03T04:08:52;6.25;;;2.90;;
25810;SDS011;13645;52.460;13.910;2022-11-03T04:11:19;5.22;;;2.38;;
25810;SDS011;13645;52.460;13.910;2022-11-03T04:14:04;3.95;;;2.53;;
25810;SDS011;13645;52.460;13.910;2022-11-03T04:16:50;4.38;;;2.78;;
25810;SDS011;13645;52.460;13.910;2022-11-03T04:19:55;4.10;;;2.22;;
25810;SDS011;13645;52.460;13.910;2022-11-03T04:22:41;4.35;;;2.60;;
25810;SDS011;13645;52.460;13.910;2022-11-03T04:25:08;6.55;;;3.08;;
25810;SDS011;13645;52.460;13.910;2022-11-03T04:27:35;5.82;;;3.10;;
25810;SDS011;13645;52.460;13.910;2022-11-03T04:32:35;6.35;;;3.88;;
25810;SDS011;13645;52.460;13.910;2022-11-03T04:35:08;9.35;;;4.32;;
25810;SDS011;13645;52.460;13.910;2022-11-03T04:37:55;14.27;;;3.92;;
25810;SDS011;13645;52.460;13.910;2022-11-03T04:40:27;6.80;;;3.20;;
25810;SDS011;13645;52.460;13.910;2022-11-03T04:42:54;9.25;;;3.38;;
25810;SDS011;13645;52.460;13.910;2022-11-03T04:45:27;12.60;;;3.85;;
25810;SDS011;13645;52.460;13.910;2022-11-03T04:47:56;8.50;;;4.10;;
25810;SDS011;13645;52.460;13.910;2022-11-03T04:50:25;9.05;;;3.88;;
25810;SDS011;13645;52.460;13.910;2022-11-03T04:52:55;10.57;;;3.20;;
25810;SDS011;13645;52.460;13.910;2022-11-03T04:55:23;89.28;;;3.90;;
25810;SDS011;13645;52.460;13.910;2022-11-03T04:57:56;35.65;;;3.22;;
25810;SDS011;13645;52.460;13.910;2022-11-03T05:00:25;16.98;;;2.50;;
25810;SDS011;13645;52.460;13.910;2022-11-03T05:02:51;40.30;;;3.22;;
25810;SDS011;13645;52.460;13.910;2022-11-03T05:05:22;24.65;;;2.15;;
25810;SDS011;13645;52.460;13.910;2022-11-03T05:07:51;12.13;;;2.15;;
25810;SDS011;13645;52.460;13.910;2022-11-03T05:10:22;17.10;;;2.10;;
25810;SDS011;13645;52.460;13.910;2022-11-03T05:12:55;65.25;;;4.05;;
25810;SDS011;13645;52.460;13.910;2022-11-03T05:15:26;179.18;;;5.50;;
25810;SDS011;13645;52.460;13.910;2022-11-03T05:18:00;94.57;;;4.75;;
25810;SDS011;13645;52.460;13.910;2022-11-03T05:20:39;31.23;;;3.70;;
25810;SDS011;13645;52.460;13.910;2022-11-03T05:23:13;51.28;;;4.18;;
25810;SDS011;13645;52.460;13.910;2022-11-03T05:25:44;17.80;;;3.30;;
25810;SDS011;13645;52.460;13.910;2022-11-03T05:30:54;67.55;;;3.60;;
25810;SDS011;13645;52.460;13.910;2022-11-03T05:33:27;99.57;;;4.28;;
25810;SDS011;13645;52.460;13.910;2022-11-03T05:36:19;104.85;;;5.47;;
25810;SDS011;13645;52.460;13.910;2022-11-03T05:38:52;148.63;;;4.50;;
25810;SDS011;13645;52.460;13.910;2022-11-03T05:41:23;354.63;;;8.35;;
25810;SDS011;13645;52.460;13.910;2022-11-03T05:43:53;120.55;;;4.10;;
25810;SDS011;13645;52.460;13.910;2022-11-03T05:46:22;37.63;;;2.05;;
25810;SDS011;13645;52.460;13.910;2022-11-03T05:48:52;86.95;;;3.05;;
25810;SDS011;13645;52.460;13.910;2022-11-03T05:51:23;34.17;;;1.95;;
25810;SDS011;13645;52.460;13.910;2022-11-03T05:53:56;1.70;;;1.60;;
25810;SDS011;13645;52.460;13.910;2022-11-03T05:56:24;2.58;;;1.67;;
25810;SDS011;13645;52.460;13.910;2022-11-03T05:58:52;4.00;;;2.05;;
25810;SDS011;13645;52.460;13.910;2022-11-03T06:01:25;2.28;;;1.98;;
25810;SDS011;13645;52.460;13.910;2022-11-03T06:03:56;5.28;;;2.00;;
25810;SDS011;13645;52.460;13.910;2022-11-03T06:06:27;3.80;;;2.13;;
25810;SDS011;13645;52.460;13.910;2022-11-03T06:09:11;9.30;;;2.38;;
25810;SDS011;13645;52.460;13.910;2022-11-03T06:11:44;128.57;;;4.03;;
25810;SDS011;13645;52.460;13.910;2022-11-03T06:14:19;83.38;;;3.38;;
25810;SDS011;13645;52.460;13.910;2022-11-03T06:19:28;216.10;;;6.18;;
25810;SDS011;13645;52.460;13.910;2022-11-03T06:24:46;347.90;;;8.75;;
25810;SDS011;13645;52.460;13.910;2022-11-03T06:27:14;89.63;;;3.67;;
25810;SDS011;13645;52.460;13.910;2022-11-03T06:29:45;21.83;;;2.60;;
25810;SDS011;13645;52.460;13.910;2022-11-03T06:32:15;8.10;;;3.20;;
25810;SDS011;13645;52.460;13.910;2022-11-03T06:34:53;7.45;;;3.20;;
25810;SDS011;13645;52.460;13.910;2022-11-03T06:37:25;5.28;;;3.00;;
25810;SDS011;13645;52.460;13.910;2022-11-03T06:42:35;3.10;;;2.50;;
25810;SDS011;13645;52.460;13.910;2022-11-03T06:45:12;5.97;;;2.90;;
25810;SDS011;13645;52.460;13.910;2022-11-03T06:47:58;6.90;;;2.85;;
25810;SDS011;13645;52.460;13.910;2022-11-03T06:50:28;4.65;;;2.85;;
25810;SDS011;13645;52.460;13.910;2022-11-03T06:52:57;4.80;;;2.97;;
25810;SDS011;13645;52.460;13.910;2022-11-03T06:55:30;4.32;;;2.92;;
25810;SDS011;13645;52.460;13.910;2022-11-03T06:58:01;6.28;;;2.83;;
25810;SDS011;13645;52.460;13.910;2022-11-03T07:00:34;6.07;;;2.70;;
25810;SDS011;13645;52.460;13.910;2022-11-03T07:05:43;7.15;;;3.50;;
25810;SDS011;13645;52.460;13.910;2022-11-03T07:10:43;10.77;;;3.58;;
25810;SDS011;13645;52.460;13.910;2022-11-03T07:13:12;8.07;;;3.67;;
25810;SDS011;13645;52.460;13.910;2022-11-03T07:15:43;7.47;;;3.30;;
25810;SDS011;13645;52.460;13.910;2022-11-03T07:18:13;6.78;;;3.28;;
25810;SDS011;13645;52.460;13.910;2022-11-03T07:20:50;6.97;;;3.40;;
25810;SDS011;13645;52.460;13.910;2022-11-03T07:23:20;5.15;;;3.33;;
25810;SDS011;13645;52.460;13.910;2022-11-03T07:25:50;10.02;;;3.30;;
25810;SDS011;13645;52.460;13.910;2022-11-03T07:28:30;8.05;;;3.55;;
25810;SDS011;13645;52.460;13.910;2022-11-03T07:31:00;9.43;;;3.88;;
25810;SDS011;13645;52.460;13.910;2022-11-03T07:33:41;14.48;;;3.83;;
25810;SDS011;13645;52.460;13.910;2022-11-03T07:36:09;6.80;;;3.35;;
25810;SDS011;13645;52.460;13.910;2022-11-03T07:38:42;3.60;;;2.60;;
25810;SDS011;13645;52.460;13.910;2022-11-03T07:41:13;5.00;;;2.67;;
25810;SDS011;13645;52.460;13.910;2022-11-03T07:43:54;5.63;;;2.75;;
25810;SDS011;13645;52.460;13.910;2022-11-03T07:46:22;5.68;;;3.35;;
25810;SDS011;13645;52.460;13.910;2022-11-03T07:48:52;7.15;;;3.45;;
25810;SDS011;13645;52.460;13.910;2022-11-03T07:51:26;8.95;;;3.58;;
25810;SDS011;13645;52.460;13.910;2022-11-03T07:56:31;8.00;;;4.20;;
25810;SDS011;13645;52.460;13.910;2022-11-03T07:59:09;15.23;;;5.07;;
25810;SDS011;13645;52.460;13.910;2022-11-03T08:01:39;17.10;;;6.00;;
25810;SDS011;13645;52.460;13.910;2022-11-03T08:04:19;11.45;;;5.10;;
25810;SDS011;13645;52.460;13.910;2022-11-03T08:06:50;14.60;;;4.35;;
25810;SDS011;13645;52.460;13.910;2022-11-03T08:09:17;10.23;;;4.20;;
25810;SDS011;13645;52.460;13.910;2022-11-03T08:11:44;12.73;;;4.32;;
25810;SDS011;13645;52.460;13.910;2022-11-03T08:14:11;10.55;;;4.18;;
25810;SDS011;13645;52.460;13.910;2022-11-03T08:16:38;9.90;;;3.85;;
25810;SDS011;13645;52.460;13.910;2022-11-03T08:19:05;12.20;;;4.55;;
25810;SDS011;13645;52.460;13.910;2022-11-03T08:21:32;11.82;;;4.85;;
25810;SDS011;13645;52.460;13.910;2022-11-03T08:23:59;15.30;;;4.45;;
25810;SDS011;13645;52.460;13.910;2022-11-03T08:26:26;10.60;;;3.33;;
25810;SDS011;13645;52.460;13.910;2022-11-03T08:28:53;11.48;;;4.20;;
25810;SDS011;13645;52.460;13.910;2022-11-03T08:31:19;10.43;;;3.65;;
25810;SDS011;13645;52.460;13.910;2022-11-03T08:33:46;14.05;;;4.60;;
25810;SDS011;13645;52.460;13.910;2022-11-03T08:36:13;11.98;;;4.15;;
25810;SDS011;13645;52.460;13.910;2022-11-03T08:38:40;11.05;;;4.15;;
25810;SDS011;13645;52.460;13.910;2022-11-03T08:41:07;9.95;;;3.78;;
25810;SDS011;13645;52.460;13.910;2022-11-03T08:43:33;13.57;;;3.88;;
25810;SDS011;13645;52.460;13.910;2022-11-03T08:46:00;15.13;;;4.00;;
25810;SDS011;13645;52.460;13.910;2022-11-03T08:48:35;12.27;;;3.92;;
25810;SDS011;13645;52.460;13.910;2022-11-03T08:51:01;9.73;;;3.65;;
25810;SDS011;13645;52.460;13.910;2022-11-03T08:53:28;11.77;;;3.55;;
25810;SDS011;13645;52.460;13.910;2022-11-03T08:55:55;14.55;;;4.22;;
25810;SDS011;13645;52.460;13.910;2022-11-03T08:58:22;11.75;;;3.03;;
25810;SDS011;13645;52.460;13.910;2022-11-03T09:00:48;9.23;;;3.17;;
25810;SDS011;13645;52.460;13.910;2022-11-03T09:03:15;15.25;;;3.95;;
25810;SDS011;13645;52.460;13.910;2022-11-03T09:05:42;14.10;;;3.72;;
25810;SDS011;13645;52.460;13.910;2022-11-03T09:08:09;10.35;;;3.53;;
25810;SDS011;13645;52.460;13.910;2022-11-03T09:10:56;11.43;;;3.10;;
25810;SDS011;13645;52.460;13.910;2022-11-03T09:13:22;8.63;;;2.72;;
25810;SDS011;13645;52.460;13.910;2022-11-03T09:15:49;9.80;;;3.15;;
25810;SDS011;13645;52.460;13.910;2022-11-03T09:18:16;11.95;;;3.33;;
25810;SDS011;13645;52.460;13.910;2022-11-03T09:20:46;9.18;;;3.20;;
25810;SDS011;13645;52.460;13.910;2022-11-03T09:23:13;10.95;;;3.00;;
25810;SDS011;13645;52.460;13.910;2022-11-03T09:25:39;8.00;;;2.50;;
25810;SDS011;13645;52.460;13.910;2022-11-03T09:28:06;7.43;;;2.50;;
25810;SDS011;13645;52.460;13.910;2022-11-03T09:30:36;11.90;;;3.08;;
25810;SDS011;13645;52.460;13.910;2022-11-03T09:33:03;9.73;;;2.33;;
25810;SDS011;13645;52.460;13.910;2022-11-03T09:35:31;9.90;;;2.40;;
25810;SDS011;13645;52.460;13.910;2022-11-03T09:37:57;10.95;;;2.53;;
25810;SDS011;13645;52.460;13.910;2022-11-03T09:40:24;7.80;;;2.63;;
25810;SDS011;13645;52.460;13.910;2022-11-03T09:42:51;8.65;;;2.53;;
25810;SDS011;13645;52.460;13.910;2022-11-03T09:45:18;9.93;;;2.53;;
25810;SDS011;13645;52.460;13.910;2022-11-03T09:47:45;9.10;;;2.72;;
25810;SDS011;13645;52.460;13.910;2022-11-03T09:50:13;11.20;;;3.13;;
25810;SDS011;13645;52.460;13.910;2022-11-03T09:52:44;17.40;;;7.53;;
25810;SDS011;13645;52.460;13.910;2022-11-03T09:55:18;8.93;;;3.40;;
25810;SDS011;13645;52.460;13.910;2022-11-03T09:57:51;11.57;;;4.07;;
25810;SDS011;13645;52.460;13.910;2022-11-03T10:00:20;22.25;;;6.22;;
25810;SDS011;13645;52.460;13.910;2022-11-03T10:02:48;11.77;;;3.33;;
25810;SDS011;13645;52.460;13.910;2022-11-03T10:05:18;10.07;;;2.80;;
25810;SDS011;13645;52.460;13.910;2022-11-03T10:07:48;7.53;;;2.95;;
25810;SDS011;13645;52.460;13.910;2022-11-03T10:10:18;10.13;;;2.45;;
25810;SDS011;13645;52.460;13.910;2022-11-03T10:12:47;7.43;;;2.20;;
25810;SDS011;13645;52.460;13.910;2022-11-03T10:15:15;17.90;;;3.00;;
25810;SDS011;13645;52.460;13.910;2022-11-03T10:17:43;9.45;;;3.22;;
25810;SDS011;13645;52.460;13.910;2022-11-03T10:20:15;8.02;;;2.30;;
25810;SDS011;13645;52.460;13.910;2022-11-03T10:22:43;9.98;;;2.53;;
25810;SDS011;13645;52.460;13.910;2022-11-03T10:31:01;6.75;;;2.17;;
25810;SDS011;13645;52.460;13.910;2022-11-03T10:33:40;12.05;;;2.45;;
25810;SDS011;13645;52.460;13.910;2022-11-03T10:38:43;8.80;;;2.28;;
25810;SDS011;13645;52.460;13.910;2022-11-03T10:41:11;6.18;;;1.85;;
25810;SDS011;13645;52.460;13.910;2022-11-03T10:43:40;6.53;;;1.88;;
25810;SDS011;13645;52.460;13.910;2022-11-03T10:46:09;10.15;;;2.30;;
25810;SDS011;13645;52.460;13.910;2022-11-03T10:49:11;7.90;;;1.90;;
25810;SDS011;13645;52.460;13.910;2022-11-03T10:51:41;7.28;;;2.17;;
25810;SDS011;13645;52.460;13.910;2022-11-03T10:54:10;9.43;;;2.15;;
25810;SDS011;13645;52.460;13.910;2022-11-03T10:56:39;7.72;;;2.22;;
25810;SDS011;13645;52.460;13.910;2022-11-03T10:59:08;8.02;;;2.17;;
25810;SDS011;13645;52.460;13.910;2022-11-03T11:01:42;8.90;;;1.90;;
25810;SDS011;13645;52.460;13.910;2022-11-03T11:04:16;8.55;;;2.05;;
25810;SDS011;13645;52.460;13.910;2022-11-03T11:06:44;6.63;;;2.17;;
25810;SDS011;13645;52.460;13.910;2022-11-03T11:09:12;10.35;;;2.15;;
25810;SDS011;13645;52.460;13.910;2022-11-03T11:12:00;7.75;;;2.10;;
25810;SDS011;13645;52.460;13.910;2022-11-03T11:14:33;8.35;;;2.30;;
25810;SDS011;13645;52.460;13.910;2022-11-03T11:17:02;7.78;;;2.22;;
25810;SDS011;13645;52.460;13.910;2022-11-03T11:19:29;6.05;;;2.53;;
25810;SDS011;13645;52.460;13.910;2022-11-03T11:22:20;5.78;;;2.08;;
25810;SDS011;13645;52.460;13.910;2022-11-03T11:29:57;6.75;;;2.15;;
25810;SDS011;13645;52.460;13.910;2022-11-03T11:35:07;8.35;;;2.08;;
25810;SDS011;13645;52.460;13.910;2022-11-03T11:37:36;9.35;;;2.10;;
25810;SDS011;13645;52.460;13.910;2022-11-03T11:48:35;8.13;;;2.05;;
25810;SDS011;13645;52.460;13.910;2022-11-03T11:51:02;6.85;;;1.98;;
25810;SDS011;13645;52.460;13.910;2022-11-03T11:53:33;7.15;;;1.90;;
25810;SDS011;13645;52.460;13.910;2022-11-03T11:56:07;12.00;;;2.30;;
25810;SDS011;13645;52.460;13.910;2022-11-03T11:58:43;4.78;;;1.90;;
25810;SDS011;13645;52.460;13.910;2022-11-03T12:04:14;8.30;;;2.35;;
25810;SDS011;13645;52.460;13.910;2022-11-03T12:06:45;6.65;;;2.35;;
25810;SDS011;13645;52.460;13.910;2022-11-03T12:11:51;8.40;;;2.50;;
25810;SDS011;13645;52.460;13.910;2022-11-03T12:14:22;5.65;;;2.25;;
25810;SDS011;13645;52.460;13.910;2022-11-03T12:19:41;9.35;;;2.15;;
25810;SDS011;13645;52.460;13.910;2022-11-03T12:29:52;6.97;;;1.80;;
25810;SDS011;13645;52.460;13.910;2022-11-03T12:32:20;11.75;;;2.40;;
25810;SDS011;13645;52.460;13.910;2022-11-03T12:34:59;10.90;;;2.60;;
25810;SDS011;13645;52.460;13.910;2022-11-03T12:37:26;5.55;;;2.08;;
25810;SDS011;13645;52.460;13.910;2022-11-03T12:39:53;6.50;;;2.05;;
25810;SDS011;13645;52.460;13.910;2022-11-03T12:42:19;4.78;;;1.75;;
25810;SDS011;13645;52.460;13.910;2022-11-03T12:44:47;6.70;;;2.45;;
25810;SDS011;13645;52.460;13.910;2022-11-03T12:47:14;13.07;;;2.40;;
25810;SDS011;13645;52.460;13.910;2022-11-03T12:49:41;10.07;;;2.42;;
25810;SDS011;13645;52.460;13.910;2022-11-03T12:52:07;11.45;;;2.17;;
25810;SDS011;13645;52.460;13.910;2022-11-03T12:54:35;12.85;;;2.25;;
25810;SDS011;13645;52.460;13.910;2022-11-03T12:57:02;7.75;;;2.08;;
25810;SDS011;13645;52.460;13.910;2022-11-03T12:59:28;7.50;;;2.00;;
25810;SDS011;13645;52.460;13.910;2022-11-03T13:01:55;7.68;;;2.58;;
25810;SDS011;13645;52.460;13.910;2022-11-03T13:04:22;6.32;;;2.13;;
25810;SDS011;13645;52.460;13.910;2022-11-03T13:06:49;10.20;;;2.40;;
25810;SDS011;13645;52.460;13.910;2022-11-03T13:09:15;8.70;;;2.35;;
25810;SDS011;13645;52.460;13.910;2022-11-03T13:11:42;13.00;;;2.25;;
25810;SDS011;13645;52.460;13.910;2022-11-03T13:14:27;8.90;;;2.30;;
25810;SDS011;13645;52.460;13.910;2022-11-03T13:16:54;11.88;;;2.50;;
25810;SDS011;13645;52.460;13.910;2022-11-03T13:19:21;9.35;;;2.55;;
25810;SDS011;13645;52.460;13.910;2022-11-03T13:21:47;11.05;;;2.72;;
25810;SDS011;13645;52.460;13.910;2022-11-03T13:24:14;6.38;;;2.15;;
25810;SDS011;13645;52.460;13.910;2022-11-03T13:26:40;6.40;;;2.20;;
25810;SDS011;13645;52.460;13.910;2022-11-03T13:29:07;12.75;;;2.80;;
25810;SDS011;13645;52.460;13.910;2022-11-03T13:31:34;5.93;;;2.30;;
25810;SDS011;13645;52.460;13.910;2022-11-03T13:34:00;8.60;;;2.38;;
25810;SDS011;13645;52.460;13.910;2022-11-03T13:36:27;7.82;;;2.40;;
25810;SDS011;13645;52.460;13.910;2022-11-03T13:38:54;10.48;;;3.00;;
25810;SDS011;13645;52.460;13.910;2022-11-03T13:41:20;12.02;;;2.85;;
25810;SDS011;13645;52.460;13.910;2022-11-03T13:43:47;10.23;;;2.72;;
25810;SDS011;13645;52.460;13.910;2022-11-03T13:46:14;10.88;;;2.85;;
25810;SDS011;13645;52.460;13.910;2022-11-03T13:48:40;10.40;;;2.90;;
25810;SDS011;13645;52.460;13.910;2022-11-03T13:51:27;10.00;;;2.35;;
25810;SDS011;13645;52.460;13.910;2022-11-03T13:53:53;8.82;;;2.63;;
25810;SDS011;13645;52.460;13.910;2022-11-03T13:56:40;12.27;;;2.78;;
25810;SDS011;13645;52.460;13.910;2022-11-03T13:59:27;5.43;;;2.05;;
25810;SDS011;13645;52.460;13.910;2022-11-03T14:01:54;10.00;;;2.47;;
25810;SDS011;13645;52.460;13.910;2022-11-03T14:04:41;11.05;;;2.53;;
25810;SDS011;13645;52.460;13.910;2022-11-03T14:07:09;9.07;;;3.00;;
25810;SDS011;13645;52.460;13.910;2022-11-03T14:09:36;9.38;;;2.60;;
25810;SDS011;13645;52.460;13.910;2022-11-03T14:12:07;9.90;;;2.50;;
25810;SDS011;13645;52.460;13.910;2022-11-03T14:14:52;7.70;;;2.33;;
25810;SDS011;13645;52.460;13.910;2022-11-03T14:17:19;9.25;;;2.90;;
25810;SDS011;13645;52.460;13.910;2022-11-03T14:19:45;6.97;;;2.55;;
25810;SDS011;13645;52.460;13.910;2022-11-03T14:22:18;12.68;;;2.75;;
25810;SDS011;13645;52.460;13.910;2022-11-03T14:24:45;6.57;;;2.38;;
25810;SDS011;13645;52.460;13.910;2022-11-03T14:27:12;7.78;;;2.00;;
25810;SDS011;13645;52.460;13.910;2022-11-03T14:29:41;7.22;;;2.97;;
25810;SDS011;13645;52.460;13.910;2022-11-03T14:32:14;10.07;;;2.60;;
25810;SDS011;13645;52.460;13.910;2022-11-03T14:34:42;7.22;;;2.25;;
25810;SDS011;13645;52.460;13.910;2022-11-03T14:37:09;9.90;;;2.67;;
25810;SDS011;13645;52.460;13.910;2022-11-03T14:39:37;13.07;;;3.13;;
25810;SDS011;13645;52.460;13.910;2022-11-03T14:42:04;7.90;;;2.80;;
25810;SDS011;13645;52.460;13.910;2022-11-03T14:44:35;12.45;;;3.05;;
25810;SDS011;13645;52.460;13.910;2022-11-03T14:47:04;10.95;;;2.70;;
25810;SDS011;13645;52.460;13.910;2022-11-03T14:49:32;10.45;;;2.80;;
25810;SDS011;13645;52.460;13.910;2022-11-03T14:52:00;8.45;;;2.67;;
25810;SDS011;13645;52.460;13.910;2022-11-03T14:54:28;7.15;;;2.55;;
25810;SDS011;13645;52.460;13.910;2022-11-03T14:56:56;4.03;;;2.28;;
25810;SDS011;13645;52.460;13.910;2022-11-03T14:59:23;10.57;;;3.15;;
25810;SDS011;13645;52.460;13.910;2022-11-03T15:01:51;10.68;;;2.90;;
25810;SDS011;13645;52.460;13.910;2022-11-03T15:04:19;10.95;;;2.55;;
25810;SDS011;13645;52.460;13.910;2022-11-03T15:06:46;10.68;;;2.95;;
25810;SDS011;13645;52.460;13.910;2022-11-03T15:09:13;9.18;;;2.95;;
25810;SDS011;13645;52.460;13.910;2022-11-03T15:11:41;13.73;;;2.83;;
25810;SDS011;13645;52.460;13.910;2022-11-03T15:14:08;7.53;;;2.80;;
25810;SDS011;13645;52.460;13.910;2022-11-03T15:16:35;9.65;;;2.83;;
25810;SDS011;13645;52.460;13.910;2022-11-03T15:19:03;8.18;;;2.72;;
25810;SDS011;13645;52.460;13.910;2022-11-03T15:21:30;9.57;;;3.10;;
25810;SDS011;13645;52.460;13.910;2022-11-03T15:23:57;8.82;;;2.60;;
25810;SDS011;13645;52.460;13.910;2022-11-03T15:26:44;11.05;;;2.97;;
25810;SDS011;13645;52.460;13.910;2022-11-03T15:29:11;10.30;;;2.85;;
25810;SDS011;13645;52.460;13.910;2022-11-03T15:31:37;13.82;;;3.40;;
25810;SDS011;13645;52.460;13.910;2022-11-03T15:34:12;8.55;;;3.00;;
25810;SDS011;13645;52.460;13.910;2022-11-03T15:36:39;10.55;;;3.40;;
25810;SDS011;13645;52.460;13.910;2022-11-03T15:39:06;17.08;;;3.55;;
25810;SDS011;13645;52.460;13.910;2022-11-03T15:41:32;11.23;;;3.38;;
25810;SDS011;13645;52.460;13.910;2022-11-03T15:43:59;8.70;;;3.05;;
25810;SDS011;13645;52.460;13.910;2022-11-03T15:46:26;14.73;;;3.47;;
25810;SDS011;13645;52.460;13.910;2022-11-03T15:48:52;12.98;;;4.30;;
25810;SDS011;13645;52.460;13.910;2022-11-03T15:51:21;12.77;;;4.18;;
25810;SDS011;13645;52.460;13.910;2022-11-03T15:53:48;11.32;;;3.80;;
25810;SDS011;13645;52.460;13.910;2022-11-03T15:56:23;7.70;;;3.13;;
25810;SDS011;13645;52.460;13.910;2022-11-03T15:58:50;9.00;;;3.20;;
25810;SDS011;13645;52.460;13.910;2022-11-03T16:01:16;7.57;;;3.03;;
25810;SDS011;13645;52.460;13.910;2022-11-03T16:03:43;8.45;;;3.30;;
25810;SDS011;13645;52.460;13.910;2022-11-03T16:06:10;11.30;;;3.88;;
25810;SDS011;13645;52.460;13.910;2022-11-03T16:08:36;10.65;;;4.07;;
25810;SDS011;13645;52.460;13.910;2022-11-03T16:11:03;12.13;;;3.78;;
25810;SDS011;13645;52.460;13.910;2022-11-03T16:13:30;9.77;;;3.45;;
25810;SDS011;13645;52.460;13.910;2022-11-03T16:15:57;13.13;;;3.75;;